sensor_id;sensor_type;location;lat;lon;timestamp;P1;durP1;ratioP1;P2;durP2;ratioP2
23250;SDS011;11794;49.730;10.088;2023-07-13T00:01:24;4.57;;;0.90;;
23250;SDS011;11794;49.730;10.088;2023-07-13T00:03:50;3.97;;;0.67;;
23250;SDS011;11794;49.730;10.088;2023-07-13T00:06:15;3.90;;;0.70;;
23250;SDS011;11794;49.730;10.088;2023-07-13T00:08:41;5.07;;;0.68;;
23250;SDS011;11794;49.730;10.088;2023-07-13T00:11:07;3.80;;;0.70;;
23250;SDS011;11794;49.730;10.088;2023-07-13T00:13:32;2.58;;;0.50;;
23250;SDS011;11794;49.730;10.088;2023-07-13T00:15:58;2.90;;;0.57;;
23250;SDS011;11794;49.730;10.088;2023-07-13T00:18:23;3.63;;;0.80;;
23250;SDS011;11794;49.730;10.088;2023-07-13T00:20:49;4.07;;;0.50;;
23250;SDS011;11794;49.730;10.088;2023-07-13T00:23:15;3.83;;;0.70;;
23250;SDS011;11794;49.730;10.088;2023-07-13T00:25:42;3.83;;;0.90;;
23250;SDS011;11794;49.730;10.088;2023-07-13T00:28:07;4.80;;;0.70;;
23250;SDS011;11794;49.730;10.088;2023-07-13T00:30:33;3.87;;;0.70;;
23250;SDS011;11794;49.730;10.088;2023-07-13T00:32:58;3.33;;;0.50;;
23250;SDS011;11794;49.730;10.088;2023-07-13T00:35:26;5.68;;;0.80;;
23250;SDS011;11794;49.730;10.088;2023-07-13T00:37:51;4.13;;;0.82;;
23250;SDS011;11794;49.730;10.088;2023-07-13T00:40:18;2.70;;;0.60;;
23250;SDS011;11794;49.730;10.088;2023-07-13T00:42:43;4.00;;;1.00;;
23250;SDS011;11794;49.730;10.088;2023-07-13T00:47:37;4.90;;;0.80;;
23250;SDS011;11794;49.730;10.088;2023-07-13T00:50:08;3.75;;;0.70;;
23250;SDS011;11794;49.730;10.088;2023-07-13T00:52:37;5.47;;;0.80;;
23250;SDS011;11794;49.730;10.088;2023-07-13T00:55:06;5.80;;;0.70;;
23250;SDS011;11794;49.730;10.088;2023-07-13T00:57:34;3.60;;;0.65;;
23250;SDS011;11794;49.730;10.088;2023-07-13T01:00:00;3.47;;;0.70;;
23250;SDS011;11794;49.730;10.088;2023-07-13T01:02:31;3.60;;;0.70;;
23250;SDS011;11794;49.730;10.088;2023-07-13T01:04:58;2.40;;;0.52;;
23250;SDS011;11794;49.730;10.088;2023-07-13T01:07:23;2.85;;;0.57;;
23250;SDS011;11794;49.730;10.088;2023-07-13T01:09:49;3.33;;;0.70;;
23250;SDS011;11794;49.730;10.088;2023-07-13T01:12:15;3.63;;;0.83;;
23250;SDS011;11794;49.730;10.088;2023-07-13T01:14:41;3.90;;;0.70;;
23250;SDS011;11794;49.730;10.088;2023-07-13T01:17:08;3.45;;;0.60;;
23250;SDS011;11794;49.730;10.088;2023-07-13T01:19:42;2.50;;;0.55;;
23250;SDS011;11794;49.730;10.088;2023-07-13T01:22:10;3.23;;;0.70;;
23250;SDS011;11794;49.730;10.088;2023-07-13T01:24:38;3.37;;;0.90;;
23250;SDS011;11794;49.730;10.088;2023-07-13T01:27:05;2.60;;;0.60;;
23250;SDS011;11794;49.730;10.088;2023-07-13T01:29:32;3.17;;;0.57;;
23250;SDS011;11794;49.730;10.088;2023-07-13T01:31:59;4.85;;;0.60;;
23250;SDS011;11794;49.730;10.088;2023-07-13T01:34:26;4.90;;;0.55;;
23250;SDS011;11794;49.730;10.088;2023-07-13T01:36:52;3.60;;;0.60;;
23250;SDS011;11794;49.730;10.088;2023-07-13T01:39:19;2.65;;;0.60;;
23250;SDS011;11794;49.730;10.088;2023-07-13T01:41:48;3.28;;;0.80;;
23250;SDS011;11794;49.730;10.088;2023-07-13T01:44:13;4.03;;;0.80;;
23250;SDS011;11794;49.730;10.088;2023-07-13T01:46:39;4.25;;;0.63;;
23250;SDS011;11794;49.730;10.088;2023-07-13T01:49:05;6.83;;;1.03;;
23250;SDS011;11794;49.730;10.088;2023-07-13T01:51:30;4.07;;;0.80;;
23250;SDS011;11794;49.730;10.088;2023-07-13T01:53:56;2.85;;;0.68;;
23250;SDS011;11794;49.730;10.088;2023-07-13T01:56:21;2.83;;;0.60;;
23250;SDS011;11794;49.730;10.088;2023-07-13T01:58:47;3.35;;;0.80;;
23250;SDS011;11794;49.730;10.088;2023-07-13T02:01:12;3.97;;;0.83;;
23250;SDS011;11794;49.730;10.088;2023-07-13T02:03:38;3.10;;;0.60;;
23250;SDS011;11794;49.730;10.088;2023-07-13T02:06:04;2.87;;;0.63;;
23250;SDS011;11794;49.730;10.088;2023-07-13T02:08:30;4.10;;;0.70;;
23250;SDS011;11794;49.730;10.088;2023-07-13T02:10:57;2.63;;;0.60;;
23250;SDS011;11794;49.730;10.088;2023-07-13T02:13:22;3.75;;;0.68;;
23250;SDS011;11794;49.730;10.088;2023-07-13T02:15:49;3.57;;;0.90;;
23250;SDS011;11794;49.730;10.088;2023-07-13T02:18:16;4.60;;;0.70;;
23250;SDS011;11794;49.730;10.088;2023-07-13T02:20:42;3.20;;;0.67;;
23250;SDS011;11794;49.730;10.088;2023-07-13T02:23:08;3.53;;;1.10;;
23250;SDS011;11794;49.730;10.088;2023-07-13T02:25:34;3.45;;;0.70;;
23250;SDS011;11794;49.730;10.088;2023-07-13T02:27:59;4.87;;;0.77;;
23250;SDS011;11794;49.730;10.088;2023-07-13T02:30:25;3.60;;;0.70;;
23250;SDS011;11794;49.730;10.088;2023-07-13T02:32:51;3.75;;;0.50;;
23250;SDS011;11794;49.730;10.088;2023-07-13T02:35:16;4.20;;;0.60;;
23250;SDS011;11794;49.730;10.088;2023-07-13T02:37:42;3.30;;;0.60;;
23250;SDS011;11794;49.730;10.088;2023-07-13T02:40:08;7.13;;;0.87;;
23250;SDS011;11794;49.730;10.088;2023-07-13T02:42:34;5.60;;;0.70;;
23250;SDS011;11794;49.730;10.088;2023-07-13T02:44:59;4.50;;;0.80;;
23250;SDS011;11794;49.730;10.088;2023-07-13T02:47:25;6.57;;;0.63;;
23250;SDS011;11794;49.730;10.088;2023-07-13T02:49:51;6.05;;;0.82;;
23250;SDS011;11794;49.730;10.088;2023-07-13T02:52:17;5.47;;;0.70;;
23250;SDS011;11794;49.730;10.088;2023-07-13T02:54:43;5.60;;;0.70;;
23250;SDS011;11794;49.730;10.088;2023-07-13T02:57:08;6.88;;;0.65;;
23250;SDS011;11794;49.730;10.088;2023-07-13T02:59:34;4.80;;;0.67;;
23250;SDS011;11794;49.730;10.088;2023-07-13T03:02:00;4.43;;;0.65;;
23250;SDS011;11794;49.730;10.088;2023-07-13T03:04:27;2.97;;;0.68;;
23250;SDS011;11794;49.730;10.088;2023-07-13T03:06:52;4.30;;;0.60;;
23250;SDS011;11794;49.730;10.088;2023-07-13T03:09:18;5.53;;;0.60;;
23250;SDS011;11794;49.730;10.088;2023-07-13T03:11:43;4.35;;;0.60;;
23250;SDS011;11794;49.730;10.088;2023-07-13T03:14:09;3.70;;;0.80;;
23250;SDS011;11794;49.730;10.088;2023-07-13T03:16:34;4.27;;;0.60;;
23250;SDS011;11794;49.730;10.088;2023-07-13T03:19:00;4.32;;;0.82;;
23250;SDS011;11794;49.730;10.088;2023-07-13T03:21:25;3.80;;;0.80;;
23250;SDS011;11794;49.730;10.088;2023-07-13T03:23:51;3.70;;;0.70;;
23250;SDS011;11794;49.730;10.088;2023-07-13T03:26:17;4.07;;;0.70;;
23250;SDS011;11794;49.730;10.088;2023-07-13T03:28:44;3.30;;;0.77;;
23250;SDS011;11794;49.730;10.088;2023-07-13T03:31:14;3.17;;;0.70;;
23250;SDS011;11794;49.730;10.088;2023-07-13T03:33:42;3.30;;;0.70;;
23250;SDS011;11794;49.730;10.088;2023-07-13T03:36:10;4.00;;;0.82;;
23250;SDS011;11794;49.730;10.088;2023-07-13T03:38:43;7.55;;;1.02;;
23250;SDS011;11794;49.730;10.088;2023-07-13T03:41:11;3.88;;;0.70;;
23250;SDS011;11794;49.730;10.088;2023-07-13T03:43:36;6.33;;;0.90;;
23250;SDS011;11794;49.730;10.088;2023-07-13T03:46:02;5.97;;;0.70;;
23250;SDS011;11794;49.730;10.088;2023-07-13T03:48:27;6.23;;;0.90;;
23250;SDS011;11794;49.730;10.088;2023-07-13T03:50:53;4.00;;;0.70;;
23250;SDS011;11794;49.730;10.088;2023-07-13T03:53:18;4.25;;;0.70;;
23250;SDS011;11794;49.730;10.088;2023-07-13T03:55:44;3.63;;;0.70;;
23250;SDS011;11794;49.730;10.088;2023-07-13T04:00:51;6.53;;;0.70;;
23250;SDS011;11794;49.730;10.088;2023-07-13T04:03:18;5.25;;;0.70;;
23250;SDS011;11794;49.730;10.088;2023-07-13T04:05:44;3.37;;;0.80;;
23250;SDS011;11794;49.730;10.088;2023-07-13T04:08:09;3.53;;;0.65;;
23250;SDS011;11794;49.730;10.088;2023-07-13T04:10:35;4.87;;;1.00;;
23250;SDS011;11794;49.730;10.088;2023-07-13T04:13:00;3.07;;;0.67;;
23250;SDS011;11794;49.730;10.088;2023-07-13T04:15:27;4.07;;;0.50;;
23250;SDS011;11794;49.730;10.088;2023-07-13T04:17:54;4.13;;;0.77;;
23250;SDS011;11794;49.730;10.088;2023-07-13T04:20:19;4.60;;;0.87;;
23250;SDS011;11794;49.730;10.088;2023-07-13T04:22:45;4.90;;;0.60;;
23250;SDS011;11794;49.730;10.088;2023-07-13T04:25:11;4.93;;;0.97;;
23250;SDS011;11794;49.730;10.088;2023-07-13T04:27:36;5.40;;;0.73;;
23250;SDS011;11794;49.730;10.088;2023-07-13T04:30:03;3.73;;;0.70;;
23250;SDS011;11794;49.730;10.088;2023-07-13T04:32:29;5.00;;;0.75;;
23250;SDS011;11794;49.730;10.088;2023-07-13T04:34:54;4.68;;;0.70;;
23250;SDS011;11794;49.730;10.088;2023-07-13T04:37:20;6.27;;;0.80;;
23250;SDS011;11794;49.730;10.088;2023-07-13T04:39:46;4.97;;;0.67;;
23250;SDS011;11794;49.730;10.088;2023-07-13T04:42:11;3.97;;;0.67;;
23250;SDS011;11794;49.730;10.088;2023-07-13T04:44:37;6.78;;;0.73;;
23250;SDS011;11794;49.730;10.088;2023-07-13T04:47:03;3.87;;;0.70;;
23250;SDS011;11794;49.730;10.088;2023-07-13T04:49:28;3.80;;;0.55;;
23250;SDS011;11794;49.730;10.088;2023-07-13T04:51:54;2.77;;;0.60;;
23250;SDS011;11794;49.730;10.088;2023-07-13T04:54:19;2.65;;;0.55;;
23250;SDS011;11794;49.730;10.088;2023-07-13T04:56:46;2.88;;;0.50;;
23250;SDS011;11794;49.730;10.088;2023-07-13T04:59:12;3.53;;;0.50;;
23250;SDS011;11794;49.730;10.088;2023-07-13T05:01:37;4.70;;;0.70;;
23250;SDS011;11794;49.730;10.088;2023-07-13T05:04:03;5.20;;;0.60;;
23250;SDS011;11794;49.730;10.088;2023-07-13T05:06:28;4.40;;;0.67;;
23250;SDS011;11794;49.730;10.088;2023-07-13T05:08:55;5.57;;;0.47;;
23250;SDS011;11794;49.730;10.088;2023-07-13T05:11:21;5.23;;;0.67;;
23250;SDS011;11794;49.730;10.088;2023-07-13T05:13:46;4.10;;;0.80;;
23250;SDS011;11794;49.730;10.088;2023-07-13T05:16:12;3.97;;;0.57;;
23250;SDS011;11794;49.730;10.088;2023-07-13T05:18:37;4.85;;;0.77;;
23250;SDS011;11794;49.730;10.088;2023-07-13T05:21:04;7.17;;;0.60;;
23250;SDS011;11794;49.730;10.088;2023-07-13T05:23:32;4.35;;;0.50;;
23250;SDS011;11794;49.730;10.088;2023-07-13T05:25:59;3.60;;;0.50;;
23250;SDS011;11794;49.730;10.088;2023-07-13T05:28:25;10.53;;;0.60;;
23250;SDS011;11794;49.730;10.088;2023-07-13T05:30:52;3.38;;;0.50;;
23250;SDS011;11794;49.730;10.088;2023-07-13T05:33:18;4.93;;;0.68;;
23250;SDS011;11794;49.730;10.088;2023-07-13T05:35:44;2.70;;;0.40;;
23250;SDS011;11794;49.730;10.088;2023-07-13T05:38:10;3.43;;;0.43;;
23250;SDS011;11794;49.730;10.088;2023-07-13T05:40:36;5.18;;;0.63;;
23250;SDS011;11794;49.730;10.088;2023-07-13T05:43:01;3.27;;;0.53;;
23250;SDS011;11794;49.730;10.088;2023-07-13T05:45:27;6.20;;;0.87;;
23250;SDS011;11794;49.730;10.088;2023-07-13T05:47:52;2.57;;;0.70;;
23250;SDS011;11794;49.730;10.088;2023-07-13T05:50:18;3.40;;;0.60;;
23250;SDS011;11794;49.730;10.088;2023-07-13T05:52:43;4.28;;;0.70;;
23250;SDS011;11794;49.730;10.088;2023-07-13T05:55:09;3.23;;;0.67;;
23250;SDS011;11794;49.730;10.088;2023-07-13T05:57:34;3.47;;;0.60;;
23250;SDS011;11794;49.730;10.088;2023-07-13T06:00:00;3.55;;;0.70;;
23250;SDS011;11794;49.730;10.088;2023-07-13T06:02:25;5.57;;;0.87;;
23250;SDS011;11794;49.730;10.088;2023-07-13T06:04:51;2.80;;;0.57;;
23250;SDS011;11794;49.730;10.088;2023-07-13T06:07:17;4.20;;;0.80;;
23250;SDS011;11794;49.730;10.088;2023-07-13T06:09:42;5.35;;;0.60;;
23250;SDS011;11794;49.730;10.088;2023-07-13T06:12:08;4.13;;;0.60;;
23250;SDS011;11794;49.730;10.088;2023-07-13T06:14:34;4.80;;;0.63;;
23250;SDS011;11794;49.730;10.088;2023-07-13T06:16:59;4.33;;;0.60;;
23250;SDS011;11794;49.730;10.088;2023-07-13T06:19:25;4.30;;;0.73;;
23250;SDS011;11794;49.730;10.088;2023-07-13T06:21:50;3.67;;;0.70;;
23250;SDS011;11794;49.730;10.088;2023-07-13T06:24:16;5.13;;;0.47;;
23250;SDS011;11794;49.730;10.088;2023-07-13T06:26:42;3.88;;;0.47;;
23250;SDS011;11794;49.730;10.088;2023-07-13T06:29:07;2.87;;;0.60;;
23250;SDS011;11794;49.730;10.088;2023-07-13T06:31:33;3.80;;;0.43;;
23250;SDS011;11794;49.730;10.088;2023-07-13T06:33:58;4.47;;;0.60;;
23250;SDS011;11794;49.730;10.088;2023-07-13T06:36:24;2.57;;;0.40;;
23250;SDS011;11794;49.730;10.088;2023-07-13T06:38:49;4.32;;;0.70;;
23250;SDS011;11794;49.730;10.088;2023-07-13T06:41:15;2.60;;;0.47;;
23250;SDS011;11794;49.730;10.088;2023-07-13T06:43:40;4.07;;;0.40;;
23250;SDS011;11794;49.730;10.088;2023-07-13T06:46:06;3.63;;;0.60;;
23250;SDS011;11794;49.730;10.088;2023-07-13T06:48:31;4.17;;;0.50;;
23250;SDS011;11794;49.730;10.088;2023-07-13T06:50:57;3.60;;;0.52;;
23250;SDS011;11794;49.730;10.088;2023-07-13T06:53:23;4.00;;;0.40;;
23250;SDS011;11794;49.730;10.088;2023-07-13T06:55:50;3.05;;;0.50;;
23250;SDS011;11794;49.730;10.088;2023-07-13T06:58:16;4.47;;;0.50;;
23250;SDS011;11794;49.730;10.088;2023-07-13T07:00:43;2.20;;;0.38;;
23250;SDS011;11794;49.730;10.088;2023-07-13T07:03:09;3.22;;;0.43;;
23250;SDS011;11794;49.730;10.088;2023-07-13T07:05:34;2.83;;;0.37;;
23250;SDS011;11794;49.730;10.088;2023-07-13T07:08:00;3.17;;;0.60;;
23250;SDS011;11794;49.730;10.088;2023-07-13T07:10:25;3.08;;;0.50;;
23250;SDS011;11794;49.730;10.088;2023-07-13T07:12:56;4.35;;;0.52;;
23250;SDS011;11794;49.730;10.088;2023-07-13T07:15:22;4.07;;;0.50;;
23250;SDS011;11794;49.730;10.088;2023-07-13T07:17:47;7.00;;;0.60;;
23250;SDS011;11794;49.730;10.088;2023-07-13T07:20:13;4.73;;;0.60;;
23250;SDS011;11794;49.730;10.088;2023-07-13T07:22:38;3.77;;;0.40;;
23250;SDS011;11794;49.730;10.088;2023-07-13T07:25:04;5.70;;;0.85;;
23250;SDS011;11794;49.730;10.088;2023-07-13T07:27:30;6.30;;;0.50;;
23250;SDS011;11794;49.730;10.088;2023-07-13T07:29:56;3.75;;;0.68;;
23250;SDS011;11794;49.730;10.088;2023-07-13T07:32:22;3.63;;;0.60;;
23250;SDS011;11794;49.730;10.088;2023-07-13T07:34:48;3.25;;;0.45;;
23250;SDS011;11794;49.730;10.088;2023-07-13T07:37:14;2.40;;;0.30;;
23250;SDS011;11794;49.730;10.088;2023-07-13T07:39:40;5.18;;;0.50;;
23250;SDS011;11794;49.730;10.088;2023-07-13T07:42:06;3.10;;;0.40;;
23250;SDS011;11794;49.730;10.088;2023-07-13T07:44:32;2.95;;;0.50;;
23250;SDS011;11794;49.730;10.088;2023-07-13T07:46:58;3.13;;;0.57;;
23250;SDS011;11794;49.730;10.088;2023-07-13T07:49:23;6.45;;;0.60;;
23250;SDS011;11794;49.730;10.088;2023-07-13T07:51:49;4.43;;;0.60;;
23250;SDS011;11794;49.730;10.088;2023-07-13T07:54:15;4.93;;;0.60;;
23250;SDS011;11794;49.730;10.088;2023-07-13T07:56:41;2.85;;;0.50;;
23250;SDS011;11794;49.730;10.088;2023-07-13T07:59:06;2.07;;;0.50;;
23250;SDS011;11794;49.730;10.088;2023-07-13T08:01:32;3.20;;;0.60;;
23250;SDS011;11794;49.730;10.088;2023-07-13T08:03:57;2.57;;;0.60;;
23250;SDS011;11794;49.730;10.088;2023-07-13T08:06:23;4.03;;;0.63;;
23250;SDS011;11794;49.730;10.088;2023-07-13T08:08:49;3.03;;;0.60;;
23250;SDS011;11794;49.730;10.088;2023-07-13T08:11:16;4.70;;;0.90;;
23250;SDS011;11794;49.730;10.088;2023-07-13T08:13:43;3.63;;;0.80;;
23250;SDS011;11794;49.730;10.088;2023-07-13T08:16:08;2.93;;;0.60;;
23250;SDS011;11794;49.730;10.088;2023-07-13T08:18:34;5.28;;;0.60;;
23250;SDS011;11794;49.730;10.088;2023-07-13T08:21:03;12.77;;;1.10;;
23250;SDS011;11794;49.730;10.088;2023-07-13T08:23:32;3.17;;;0.60;;
23250;SDS011;11794;49.730;10.088;2023-07-13T08:25:59;4.78;;;0.80;;
23250;SDS011;11794;49.730;10.088;2023-07-13T08:28:26;4.00;;;0.90;;
23250;SDS011;11794;49.730;10.088;2023-07-13T08:30:52;2.90;;;0.60;;
23250;SDS011;11794;49.730;10.088;2023-07-13T08:33:19;3.90;;;0.83;;
23250;SDS011;11794;49.730;10.088;2023-07-13T08:35:48;4.18;;;0.70;;
23250;SDS011;11794;49.730;10.088;2023-07-13T08:38:14;3.22;;;0.70;;
23250;SDS011;11794;49.730;10.088;2023-07-13T08:40:40;3.03;;;0.70;;
23250;SDS011;11794;49.730;10.088;2023-07-13T08:43:08;3.30;;;0.60;;
23250;SDS011;11794;49.730;10.088;2023-07-13T08:45:47;4.13;;;0.80;;
23250;SDS011;11794;49.730;10.088;2023-07-13T08:48:18;2.93;;;0.90;;
23250;SDS011;11794;49.730;10.088;2023-07-13T08:50:51;4.47;;;0.65;;
23250;SDS011;11794;49.730;10.088;2023-07-13T08:53:34;3.28;;;0.70;;
23250;SDS011;11794;49.730;10.088;2023-07-13T08:56:05;3.63;;;0.70;;
23250;SDS011;11794;49.730;10.088;2023-07-13T08:58:38;3.90;;;1.17;;
23250;SDS011;11794;49.730;10.088;2023-07-13T09:01:08;5.18;;;0.80;;
23250;SDS011;11794;49.730;10.088;2023-07-13T09:03:40;3.92;;;0.80;;
23250;SDS011;11794;49.730;10.088;2023-07-13T09:06:13;4.55;;;1.00;;
23250;SDS011;11794;49.730;10.088;2023-07-13T09:08:47;4.28;;;1.15;;
23250;SDS011;11794;49.730;10.088;2023-07-13T09:11:27;4.27;;;1.03;;
23250;SDS011;11794;49.730;10.088;2023-07-13T09:16:48;4.32;;;0.90;;
23250;SDS011;11794;49.730;10.088;2023-07-13T09:19:18;4.53;;;1.02;;
23250;SDS011;11794;49.730;10.088;2023-07-13T09:21:48;5.40;;;1.20;;
23250;SDS011;11794;49.730;10.088;2023-07-13T09:26:53;3.35;;;1.05;;
23250;SDS011;11794;49.730;10.088;2023-07-13T09:29:21;5.10;;;1.20;;
23250;SDS011;11794;49.730;10.088;2023-07-13T09:31:55;4.40;;;1.10;;
23250;SDS011;11794;49.730;10.088;2023-07-13T09:34:23;3.92;;;0.98;;
23250;SDS011;11794;49.730;10.088;2023-07-13T09:36:50;4.70;;;1.27;;
23250;SDS011;11794;49.730;10.088;2023-07-13T09:39:27;4.37;;;1.20;;
23250;SDS011;11794;49.730;10.088;2023-07-13T09:42:03;3.20;;;1.00;;
23250;SDS011;11794;49.730;10.088;2023-07-13T09:44:38;5.60;;;1.15;;
23250;SDS011;11794;49.730;10.088;2023-07-13T09:47:31;3.90;;;1.10;;
23250;SDS011;11794;49.730;10.088;2023-07-13T09:50:03;4.27;;;1.03;;
23250;SDS011;11794;49.730;10.088;2023-07-13T09:52:42;6.73;;;1.07;;
23250;SDS011;11794;49.730;10.088;2023-07-13T09:58:05;4.68;;;0.93;;
23250;SDS011;11794;49.730;10.088;2023-07-13T10:00:40;4.97;;;1.08;;
23250;SDS011;11794;49.730;10.088;2023-07-13T10:05:45;4.47;;;1.33;;
23250;SDS011;11794;49.730;10.088;2023-07-13T10:08:17;5.28;;;1.23;;
23250;SDS011;11794;49.730;10.088;2023-07-13T10:10:52;5.80;;;1.30;;
23250;SDS011;11794;49.730;10.088;2023-07-13T10:13:32;4.35;;;1.10;;
23250;SDS011;11794;49.730;10.088;2023-07-13T10:16:02;5.03;;;1.33;;
23250;SDS011;11794;49.730;10.088;2023-07-13T10:18:30;3.93;;;1.00;;
23250;SDS011;11794;49.730;10.088;2023-07-13T10:21:11;3.83;;;1.58;;
23250;SDS011;11794;49.730;10.088;2023-07-13T10:23:39;5.20;;;1.60;;
23250;SDS011;11794;49.730;10.088;2023-07-13T10:26:04;6.30;;;1.50;;
23250;SDS011;11794;49.730;10.088;2023-07-13T10:28:37;4.22;;;1.27;;
23250;SDS011;11794;49.730;10.088;2023-07-13T10:31:04;6.28;;;1.30;;
23250;SDS011;11794;49.730;10.088;2023-07-13T10:33:36;4.45;;;1.50;;
23250;SDS011;11794;49.730;10.088;2023-07-13T10:38:45;3.47;;;1.10;;
23250;SDS011;11794;49.730;10.088;2023-07-13T10:41:16;4.63;;;1.17;;
23250;SDS011;11794;49.730;10.088;2023-07-13T10:43:45;5.60;;;1.15;;
23250;SDS011;11794;49.730;10.088;2023-07-13T10:46:16;5.28;;;1.10;;
23250;SDS011;11794;49.730;10.088;2023-07-13T10:48:44;4.25;;;0.80;;
23250;SDS011;11794;49.730;10.088;2023-07-13T10:51:17;4.63;;;0.90;;
23250;SDS011;11794;49.730;10.088;2023-07-13T10:53:46;4.88;;;1.10;;
23250;SDS011;11794;49.730;10.088;2023-07-13T10:58:41;5.03;;;1.00;;
23250;SDS011;11794;49.730;10.088;2023-07-13T11:03:53;3.10;;;0.88;;
23250;SDS011;11794;49.730;10.088;2023-07-13T11:21:27;3.85;;;1.08;;
23250;SDS011;11794;49.730;10.088;2023-07-13T11:29:25;5.25;;;1.17;;
23250;SDS011;11794;49.730;10.088;2023-07-13T11:31:57;4.90;;;1.17;;
23250;SDS011;11794;49.730;10.088;2023-07-13T11:34:30;5.43;;;1.30;;
23250;SDS011;11794;49.730;10.088;2023-07-13T11:37:00;4.20;;;1.10;;
23250;SDS011;11794;49.730;10.088;2023-07-13T11:39:31;4.40;;;1.10;;
23250;SDS011;11794;49.730;10.088;2023-07-13T11:42:08;3.67;;;1.20;;
23250;SDS011;11794;49.730;10.088;2023-07-13T11:44:41;3.92;;;1.23;;
23250;SDS011;11794;49.730;10.088;2023-07-13T11:47:09;5.28;;;1.42;;
23250;SDS011;11794;49.730;10.088;2023-07-13T11:49:44;7.50;;;1.10;;
23250;SDS011;11794;49.730;10.088;2023-07-13T11:52:21;4.57;;;1.00;;
23250;SDS011;11794;49.730;10.088;2023-07-13T11:54:54;6.50;;;0.95;;
23250;SDS011;11794;49.730;10.088;2023-07-13T11:57:23;5.72;;;1.02;;
23250;SDS011;11794;49.730;10.088;2023-07-13T11:59:52;3.70;;;0.80;;
23250;SDS011;11794;49.730;10.088;2023-07-13T12:04:56;4.13;;;0.90;;
23250;SDS011;11794;49.730;10.088;2023-07-13T12:07:22;4.05;;;0.90;;
23250;SDS011;11794;49.730;10.088;2023-07-13T12:09:48;5.07;;;0.95;;
23250;SDS011;11794;49.730;10.088;2023-07-13T12:12:19;4.38;;;1.23;;
23250;SDS011;11794;49.730;10.088;2023-07-13T12:14:46;4.43;;;0.90;;
23250;SDS011;11794;49.730;10.088;2023-07-13T12:17:20;3.20;;;0.83;;
23250;SDS011;11794;49.730;10.088;2023-07-13T12:19:48;4.05;;;0.90;;
23250;SDS011;11794;49.730;10.088;2023-07-13T12:22:17;4.88;;;0.82;;
23250;SDS011;11794;49.730;10.088;2023-07-13T12:24:44;6.60;;;1.33;;
23250;SDS011;11794;49.730;10.088;2023-07-13T12:27:28;4.85;;;1.33;;
23250;SDS011;11794;49.730;10.088;2023-07-13T12:29:58;5.18;;;1.10;;
23250;SDS011;11794;49.730;10.088;2023-07-13T12:32:26;3.67;;;1.05;;
23250;SDS011;11794;49.730;10.088;2023-07-13T12:34:53;5.00;;;1.30;;
23250;SDS011;11794;49.730;10.088;2023-07-13T12:37:21;6.78;;;1.30;;
23250;SDS011;11794;49.730;10.088;2023-07-13T12:39:47;4.40;;;1.63;;
23250;SDS011;11794;49.730;10.088;2023-07-13T12:42:21;4.57;;;1.10;;
23250;SDS011;11794;49.730;10.088;2023-07-13T12:44:50;4.65;;;1.00;;
23250;SDS011;11794;49.730;10.088;2023-07-13T12:47:19;5.15;;;1.10;;
23250;SDS011;11794;49.730;10.088;2023-07-13T12:49:50;5.07;;;1.08;;
23250;SDS011;11794;49.730;10.088;2023-07-13T12:52:23;5.95;;;0.95;;
23250;SDS011;11794;49.730;10.088;2023-07-13T12:55:17;6.18;;;1.10;;
23250;SDS011;11794;49.730;10.088;2023-07-13T12:57:49;3.15;;;1.10;;
23250;SDS011;11794;49.730;10.088;2023-07-13T13:02:52;7.28;;;1.27;;
23250;SDS011;11794;49.730;10.088;2023-07-13T13:05:20;5.23;;;1.20;;
23250;SDS011;11794;49.730;10.088;2023-07-13T13:07:48;5.80;;;1.30;;
23250;SDS011;11794;49.730;10.088;2023-07-13T13:10:14;5.32;;;1.10;;
23250;SDS011;11794;49.730;10.088;2023-07-13T13:12:40;6.93;;;1.48;;
23250;SDS011;11794;49.730;10.088;2023-07-13T13:15:07;4.15;;;1.10;;
23250;SDS011;11794;49.730;10.088;2023-07-13T13:17:34;3.53;;;1.10;;
23250;SDS011;11794;49.730;10.088;2023-07-13T13:19:59;5.53;;;1.20;;
23250;SDS011;11794;49.730;10.088;2023-07-13T13:22:25;7.00;;;1.20;;
23250;SDS011;11794;49.730;10.088;2023-07-13T13:24:51;5.60;;;1.20;;
23250;SDS011;11794;49.730;10.088;2023-07-13T13:27:17;4.82;;;1.10;;
23250;SDS011;11794;49.730;10.088;2023-07-13T13:29:45;3.40;;;1.13;;
23250;SDS011;11794;49.730;10.088;2023-07-13T13:32:12;4.07;;;1.07;;
23250;SDS011;11794;49.730;10.088;2023-07-13T13:34:39;5.77;;;1.00;;
23250;SDS011;11794;49.730;10.088;2023-07-13T13:37:05;4.32;;;1.17;;
23250;SDS011;11794;49.730;10.088;2023-07-13T13:39:44;3.92;;;1.00;;
23250;SDS011;11794;49.730;10.088;2023-07-13T13:42:10;4.35;;;1.20;;
23250;SDS011;11794;49.730;10.088;2023-07-13T13:44:36;4.20;;;1.00;;
23250;SDS011;11794;49.730;10.088;2023-07-13T13:47:02;4.13;;;1.20;;
23250;SDS011;11794;49.730;10.088;2023-07-13T13:49:29;4.15;;;1.10;;
23250;SDS011;11794;49.730;10.088;2023-07-13T13:51:55;6.47;;;1.13;;
23250;SDS011;11794;49.730;10.088;2023-07-13T13:54:22;3.90;;;1.15;;
23250;SDS011;11794;49.730;10.088;2023-07-13T13:56:49;3.90;;;0.80;;
23250;SDS011;11794;49.730;10.088;2023-07-13T13:59:16;5.20;;;1.20;;
23250;SDS011;11794;49.730;10.088;2023-07-13T14:01:43;4.28;;;0.90;;
23250;SDS011;11794;49.730;10.088;2023-07-13T14:04:13;4.53;;;0.97;;
23250;SDS011;11794;49.730;10.088;2023-07-13T14:06:42;4.03;;;1.10;;
23250;SDS011;11794;49.730;10.088;2023-07-13T14:09:09;4.40;;;1.13;;
23250;SDS011;11794;49.730;10.088;2023-07-13T14:11:38;3.60;;;0.93;;
23250;SDS011;11794;49.730;10.088;2023-07-13T14:14:08;3.50;;;0.95;;
23250;SDS011;11794;49.730;10.088;2023-07-13T14:16:41;6.53;;;1.30;;
23250;SDS011;11794;49.730;10.088;2023-07-13T14:19:08;4.90;;;1.00;;
23250;SDS011;11794;49.730;10.088;2023-07-13T14:21:36;3.95;;;1.17;;
23250;SDS011;11794;49.730;10.088;2023-07-13T14:24:02;5.87;;;1.30;;
23250;SDS011;11794;49.730;10.088;2023-07-13T14:26:29;5.00;;;1.20;;
23250;SDS011;11794;49.730;10.088;2023-07-13T14:29:00;3.22;;;0.90;;
23250;SDS011;11794;49.730;10.088;2023-07-13T14:31:26;4.03;;;1.10;;
23250;SDS011;11794;49.730;10.088;2023-07-13T14:33:53;4.43;;;1.00;;
23250;SDS011;11794;49.730;10.088;2023-07-13T14:36:30;5.13;;;0.80;;
23250;SDS011;11794;49.730;10.088;2023-07-13T14:38:58;3.40;;;0.95;;
23250;SDS011;11794;49.730;10.088;2023-07-13T14:41:25;3.78;;;0.88;;
23250;SDS011;11794;49.730;10.088;2023-07-13T14:43:51;4.20;;;1.10;;
23250;SDS011;11794;49.730;10.088;2023-07-13T14:46:28;4.80;;;1.30;;
23250;SDS011;11794;49.730;10.088;2023-07-13T14:49:02;4.15;;;0.93;;
23250;SDS011;11794;49.730;10.088;2023-07-13T14:51:31;3.85;;;1.00;;
23250;SDS011;11794;49.730;10.088;2023-07-13T14:53:58;3.55;;;0.90;;
23250;SDS011;11794;49.730;10.088;2023-07-13T14:56:28;3.70;;;0.95;;
23250;SDS011;11794;49.730;10.088;2023-07-13T14:58:53;6.10;;;1.20;;
23250;SDS011;11794;49.730;10.088;2023-07-13T15:01:19;4.32;;;0.98;;
23250;SDS011;11794;49.730;10.088;2023-07-13T15:03:47;3.65;;;0.82;;
23250;SDS011;11794;49.730;10.088;2023-07-13T15:06:15;3.67;;;1.05;;
23250;SDS011;11794;49.730;10.088;2023-07-13T15:08:40;3.77;;;0.87;;
23250;SDS011;11794;49.730;10.088;2023-07-13T15:11:06;3.77;;;0.90;;
23250;SDS011;11794;49.730;10.088;2023-07-13T15:13:33;3.17;;;0.73;;
23250;SDS011;11794;49.730;10.088;2023-07-13T15:15:59;3.72;;;0.75;;
23250;SDS011;11794;49.730;10.088;2023-07-13T15:18:25;5.40;;;1.15;;
23250;SDS011;11794;49.730;10.088;2023-07-13T15:20:52;2.75;;;0.70;;
23250;SDS011;11794;49.730;10.088;2023-07-13T15:23:19;2.63;;;0.80;;
23250;SDS011;11794;49.730;10.088;2023-07-13T15:25:45;5.77;;;1.10;;